sensor_id;sensor_type;location;lat;lon;timestamp;pressure;altitude;pressure_sealevel;temperature;humidity
71857;BME280;63344;46.980;28.882;2023-02-17T00:01:32;101158.22;;;1.37;78.23
71857;BME280;63344;46.980;28.882;2023-02-17T00:04:00;101166.13;;;1.44;78.19
71857;BME280;63344;46.980;28.882;2023-02-17T00:06:29;101159.06;;;1.33;78.05
71857;BME280;63344;46.980;28.882;2023-02-17T00:08:58;101170.38;;;1.29;78.08
71857;BME280;63344;46.980;28.882;2023-02-17T00:11:26;101155.50;;;1.21;78.48
71857;BME280;63344;46.980;28.882;2023-02-17T00:13:54;101158.13;;;1.22;78.54
71857;BME280;63344;46.980;28.882;2023-02-17T00:16:24;101154.63;;;1.22;78.90
71857;BME280;63344;46.980;28.882;2023-02-17T00:18:56;101162.38;;;1.09;78.31
71857;BME280;63344;46.980;28.882;2023-02-17T00:21:26;101159.63;;;0.94;77.97
71857;BME280;63344;46.980;28.882;2023-02-17T00:23:56;101160.41;;;0.85;77.96
71857;BME280;63344;46.980;28.882;2023-02-17T00:26:23;101156.00;;;0.78;77.84
71857;BME280;63344;46.980;28.882;2023-02-17T00:28:50;101159.31;;;0.63;77.98
71857;BME280;63344;46.980;28.882;2023-02-17T00:31:20;101160.13;;;0.57;77.72
71857;BME280;63344;46.980;28.882;2023-02-17T00:33:49;101163.53;;;0.50;77.43
71857;BME280;63344;46.980;28.882;2023-02-17T00:36:18;101156.44;;;0.38;77.27
71857;BME280;63344;46.980;28.882;2023-02-17T00:38:47;101167.72;;;0.34;77.56
71857;BME280;63344;46.980;28.882;2023-02-17T00:41:16;101165.81;;;0.23;77.48
71857;BME280;63344;46.980;28.882;2023-02-17T00:43:44;101154.38;;;0.13;77.55
71857;BME280;63344;46.980;28.882;2023-02-17T00:46:11;101159.53;;;0.07;77.31
71857;BME280;63344;46.980;28.882;2023-02-17T00:48:39;101143.72;;;-0.03;77.40
71857;BME280;63344;46.980;28.882;2023-02-17T00:51:07;101152.44;;;-0.04;77.76
71857;BME280;63344;46.980;28.882;2023-02-17T00:53:35;101158.47;;;-0.06;77.71
71857;BME280;63344;46.980;28.882;2023-02-17T00:56:02;101150.59;;;-0.11;78.26
71857;BME280;63344;46.980;28.882;2023-02-17T00:58:31;101145.22;;;-0.20;78.06
71857;BME280;63344;46.980;28.882;2023-02-17T01:00:58;101146.00;;;-0.29;78.44
71857;BME280;63344;46.980;28.882;2023-02-17T01:03:26;101158.16;;;-0.31;78.35
71857;BME280;63344;46.980;28.882;2023-02-17T01:05:54;101150.28;;;-0.32;78.51
71857;BME280;63344;46.980;28.882;2023-02-17T01:08:22;101150.31;;;-0.31;78.87
71857;BME280;63344;46.980;28.882;2023-02-17T01:10:50;101142.41;;;-0.37;79.01
71857;BME280;63344;46.980;28.882;2023-02-17T01:13:18;101151.16;;;-0.33;80.18
71857;BME280;63344;46.980;28.882;2023-02-17T01:15:51;101136.28;;;-0.39;79.72
71857;BME280;63344;46.980;28.882;2023-02-17T01:18:21;101140.56;;;-0.44;79.62
71857;BME280;63344;46.980;28.882;2023-02-17T01:20:50;101143.97;;;-0.48;79.71
71857;BME280;63344;46.980;28.882;2023-02-17T01:23:18;101146.59;;;-0.50;79.67
71857;BME280;63344;46.980;28.882;2023-02-17T01:25:46;101141.31;;;-0.53;79.42
71857;BME280;63344;46.980;28.882;2023-02-17T01:28:18;101126.44;;;-0.58;79.75
71857;BME280;63344;46.980;28.882;2023-02-17T01:30:47;101134.34;;;-0.52;79.90
71857;BME280;63344;46.980;28.882;2023-02-17T01:33:15;101131.69;;;-0.57;79.82
71857;BME280;63344;46.980;28.882;2023-02-17T01:35:43;101131.66;;;-0.58;80.07
71857;BME280;63344;46.980;28.882;2023-02-17T01:38:10;101129.84;;;-0.63;79.99
71857;BME280;63344;46.980;28.882;2023-02-17T01:40:47;101129.88;;;-0.61;80.27
71857;BME280;63344;46.980;28.882;2023-02-17T01:43:16;101134.13;;;-0.66;80.02
71857;BME280;63344;46.980;28.882;2023-02-17T01:46:06;101132.34;;;-0.72;79.84
71857;BME280;63344;46.980;28.882;2023-02-17T01:48:41;101128.81;;;-0.75;80.10
71857;BME280;63344;46.980;28.882;2023-02-17T01:53:44;101135.63;;;-0.84;80.00
71857;BME280;63344;46.980;28.882;2023-02-17T01:56:14;101138.19;;;-0.85;80.38
71857;BME280;63344;46.980;28.882;2023-02-17T01:58:46;101127.69;;;-0.91;80.32
71857;BME280;63344;46.980;28.882;2023-02-17T02:01:16;101126.75;;;-0.95;80.27
71857;BME280;63344;46.980;28.882;2023-02-17T02:03:44;101127.63;;;-0.94;80.68
71857;BME280;63344;46.980;28.882;2023-02-17T02:06:16;101127.56;;;-0.96;80.67
71857;BME280;63344;46.980;28.882;2023-02-17T02:11:17;101124.13;;;-0.95;80.79
71857;BME280;63344;46.980;28.882;2023-02-17T02:13:44;101133.75;;;-0.91;81.52
71857;BME280;63344;46.980;28.882;2023-02-17T02:16:17;101121.78;;;-0.79;82.10
71857;BME280;63344;46.980;28.882;2023-02-17T02:27:19;101115.88;;;-0.68;82.03
71857;BME280;63344;46.980;28.882;2023-02-17T02:41:43;101116.78;;;-0.64;81.02
71857;BME280;63344;46.980;28.882;2023-02-17T02:44:16;101123.78;;;-0.62;80.71
71857;BME280;63344;46.980;28.882;2023-02-17T02:46:44;101128.13;;;-0.64;80.69
71857;BME280;63344;46.980;28.882;2023-02-17T02:49:11;101121.09;;;-0.66;80.58
71857;BME280;63344;46.980;28.882;2023-02-17T02:54:42;101122.78;;;-0.71;81.19
71857;BME280;63344;46.980;28.882;2023-02-17T02:57:26;101125.38;;;-0.71;81.00
71857;BME280;63344;46.980;28.882;2023-02-17T03:00:24;101117.59;;;-0.70;80.85
71857;BME280;63344;46.980;28.882;2023-02-17T03:03:16;101117.56;;;-0.71;80.77
71857;BME280;63344;46.980;28.882;2023-02-17T03:10:59;101123.72;;;-0.65;80.73
71857;BME280;63344;46.980;28.882;2023-02-17T03:13:26;101126.34;;;-0.65;81.41
71857;BME280;63344;46.980;28.882;2023-02-17T03:15:53;101119.41;;;-0.63;81.45
71857;BME280;63344;46.980;28.882;2023-02-17T03:18:21;101122.00;;;-0.64;81.60
71857;BME280;63344;46.980;28.882;2023-02-17T03:20:56;101121.22;;;-0.58;81.66
71857;BME280;63344;46.980;28.882;2023-02-17T03:23:27;101123.84;;;-0.57;81.52
71857;BME280;63344;46.980;28.882;2023-02-17T03:25:54;101128.25;;;-0.53;81.30
71857;BME280;63344;46.980;28.882;2023-02-17T03:28:22;101119.47;;;-0.59;80.98
71857;BME280;63344;46.980;28.882;2023-02-17T03:30:49;101116.88;;;-0.58;81.31
71857;BME280;63344;46.980;28.882;2023-02-17T03:33:16;101123.91;;;-0.54;81.17
71857;BME280;63344;46.980;28.882;2023-02-17T03:35:43;101116.97;;;-0.53;81.21
71857;BME280;63344;46.980;28.882;2023-02-17T03:38:12;101120.47;;;-0.51;81.00
71857;BME280;63344;46.980;28.882;2023-02-17T03:40:39;101118.69;;;-0.54;80.98
71857;BME280;63344;46.980;28.882;2023-02-17T03:43:07;101110.75;;;-0.60;80.89
71857;BME280;63344;46.980;28.882;2023-02-17T03:45:37;101116.88;;;-0.58;80.88
71857;BME280;63344;46.980;28.882;2023-02-17T03:48:04;101123.88;;;-0.55;81.51
71857;BME280;63344;46.980;28.882;2023-02-17T03:50:32;101117.75;;;-0.59;81.83
71857;BME280;63344;46.980;28.882;2023-02-17T03:52:59;101115.06;;;-0.62;81.99
71857;BME280;63344;46.980;28.882;2023-02-17T03:55:27;101122.97;;;-0.59;81.43
71857;BME280;63344;46.980;28.882;2023-02-17T03:57:54;101134.16;;;-0.65;80.88
71857;BME280;63344;46.980;28.882;2023-02-17T04:00:21;101121.91;;;-0.70;81.25
71857;BME280;63344;46.980;28.882;2023-02-17T04:02:49;101124.56;;;-0.67;81.21
71857;BME280;63344;46.980;28.882;2023-02-17T04:05:16;101120.25;;;-0.65;81.55
71857;BME280;63344;46.980;28.882;2023-02-17T04:07:44;101108.97;;;-0.66;81.20
71857;BME280;63344;46.980;28.882;2023-02-17T04:10:11;101113.34;;;-0.63;81.52
71857;BME280;63344;46.980;28.882;2023-02-17T04:12:39;101115.13;;;-0.59;81.45
71857;BME280;63344;46.980;28.882;2023-02-17T04:15:07;101110.84;;;-0.55;81.79
71857;BME280;63344;46.980;28.882;2023-02-17T04:17:36;101113.47;;;-0.54;81.84
71857;BME280;63344;46.980;28.882;2023-02-17T04:20:05;101113.47;;;-0.54;81.76
71857;BME280;63344;46.980;28.882;2023-02-17T04:22:32;101114.31;;;-0.55;81.62
71857;BME280;63344;46.980;28.882;2023-02-17T04:24:59;101106.44;;;-0.58;81.51
71857;BME280;63344;46.980;28.882;2023-02-17T04:27:27;101112.63;;;-0.51;81.59
71857;BME280;63344;46.980;28.882;2023-02-17T04:29:54;101106.44;;;-0.58;81.55
71857;BME280;63344;46.980;28.882;2023-02-17T04:32:22;101110.84;;;-0.55;81.31
71857;BME280;63344;46.980;28.882;2023-02-17T04:34:49;101097.75;;;-0.58;81.30
71857;BME280;63344;46.980;28.882;2023-02-17T04:37:16;101116.06;;;-0.55;81.18
71857;BME280;63344;46.980;28.882;2023-02-17T04:39:43;101108.97;;;-0.63;80.80
71857;BME280;63344;46.980;28.882;2023-02-17T04:42:11;101123.78;;;-0.60;80.57
71857;BME280;63344;46.980;28.882;2023-02-17T04:44:38;101113.34;;;-0.60;80.96
71857;BME280;63344;46.980;28.882;2023-02-17T04:47:06;101110.75;;;-0.60;81.16
71857;BME280;63344;46.980;28.882;2023-02-17T04:49:47;101110.75;;;-0.60;81.09
71857;BME280;63344;46.980;28.882;2023-02-17T04:52:23;101115.97;;;-0.60;81.18
71857;BME280;63344;46.980;28.882;2023-02-17T04:54:56;101118.56;;;-0.63;81.41
71857;BME280;63344;46.980;28.882;2023-02-17T04:57:24;101129.00;;;-0.62;81.63
71857;BME280;63344;46.980;28.882;2023-02-17T04:59:51;101124.53;;;-0.69;81.48
71857;BME280;63344;46.980;28.882;2023-02-17T05:02:18;101130.66;;;-0.67;81.33
71857;BME280;63344;46.980;28.882;2023-02-17T05:04:46;101127.19;;;-0.67;81.14
71857;BME280;63344;46.980;28.882;2023-02-17T05:07:18;101134.19;;;-0.63;81.37
71857;BME280;63344;46.980;28.882;2023-02-17T05:09:48;101129.91;;;-0.59;81.55
71857;BME280;63344;46.980;28.882;2023-02-17T05:12:16;101126.44;;;-0.58;81.60
71857;BME280;63344;46.980;28.882;2023-02-17T05:14:46;101137.88;;;-0.49;81.72
71857;BME280;63344;46.980;28.882;2023-02-17T05:17:37;101144.91;;;-0.45;81.13
71857;BME280;63344;46.980;28.882;2023-02-17T05:20:07;101150.03;;;-0.51;81.29
71857;BME280;63344;46.980;28.882;2023-02-17T05:22:37;101151.75;;;-0.53;80.77
71857;BME280;63344;46.980;28.882;2023-02-17T05:25:07;101143.88;;;-0.54;80.93
71857;BME280;63344;46.980;28.882;2023-02-17T05:27:35;101155.22;;;-0.54;80.74
71857;BME280;63344;46.980;28.882;2023-02-17T05:30:08;101157.84;;;-0.51;80.94
71857;BME280;63344;46.980;28.882;2023-02-17T05:32:43;101160.56;;;-0.45;80.98
71857;BME280;63344;46.980;28.882;2023-02-17T05:35:26;101158.00;;;-0.40;80.94
71857;BME280;63344;46.980;28.882;2023-02-17T05:37:53;101154.63;;;-0.33;81.07
71857;BME280;63344;46.980;28.882;2023-02-17T05:40:26;101163.44;;;-0.28;80.85
71857;BME280;63344;46.980;28.882;2023-02-17T05:42:54;101157.38;;;-0.25;81.08
71857;BME280;63344;46.980;28.882;2023-02-17T05:45:22;101167.97;;;-0.13;81.23
71857;BME280;63344;46.980;28.882;2023-02-17T05:47:49;101166.25;;;-0.11;80.68
71857;BME280;63344;46.980;28.882;2023-02-17T05:50:19;101157.66;;;-0.04;80.86
71857;BME280;63344;46.980;28.882;2023-02-17T05:52:48;101160.41;;;0.07;80.95
71857;BME280;63344;46.980;28.882;2023-02-17T05:55:29;101171.91;;;0.23;80.78
71857;BME280;63344;46.980;28.882;2023-02-17T05:58:28;101172.19;;;0.45;80.49
71857;BME280;63344;46.980;28.882;2023-02-17T06:00:58;101170.47;;;0.47;79.78
71857;BME280;63344;46.980;28.882;2023-02-17T06:03:25;101176.50;;;0.43;79.84
71857;BME280;63344;46.980;28.882;2023-02-17T06:05:54;101170.41;;;0.41;79.59
71857;BME280;63344;46.980;28.882;2023-02-17T06:08:22;101180.03;;;0.48;79.85
71857;BME280;63344;46.980;28.882;2023-02-17T06:10:51;101165.19;;;0.44;79.96
71857;BME280;63344;46.980;28.882;2023-02-17T06:13:48;101170.47;;;0.50;79.50
71857;BME280;63344;46.980;28.882;2023-02-17T06:16:21;101183.59;;;0.53;79.27
71857;BME280;63344;46.980;28.882;2023-02-17T06:18:48;101182.88;;;0.68;79.44
71857;BME280;63344;46.980;28.882;2023-02-17T06:21:18;101181.22;;;0.77;79.23
71857;BME280;63344;46.980;28.882;2023-02-17T06:23:46;101176.09;;;0.87;79.17
71857;BME280;63344;46.980;28.882;2023-02-17T06:26:13;101167.47;;;0.94;79.35
71857;BME280;63344;46.980;28.882;2023-02-17T06:28:43;101191.19;;;1.15;78.94
71857;BME280;63344;46.980;28.882;2023-02-17T06:31:11;101180.84;;;1.26;78.69
71857;BME280;63344;46.980;28.882;2023-02-17T06:33:39;101180.91;;;1.34;78.32
71857;BME280;63344;46.980;28.882;2023-02-17T06:36:20;101187.13;;;1.48;78.25
71857;BME280;63344;46.980;28.882;2023-02-17T06:38:51;101176.66;;;1.53;78.11
71857;BME280;63344;46.980;28.882;2023-02-17T06:41:18;101185.47;;;1.63;78.07
71857;BME280;63344;46.980;28.882;2023-02-17T06:43:45;101175.91;;;1.69;78.07
71857;BME280;63344;46.980;28.882;2023-02-17T06:46:14;101181.22;;;1.82;78.15
71857;BME280;63344;46.980;28.882;2023-02-17T06:49:04;101183.03;;;1.95;77.46
71857;BME280;63344;46.980;28.882;2023-02-17T06:52:12;101179.63;;;2.08;76.98
71857;BME280;63344;46.980;28.882;2023-02-17T06:54:57;101177.03;;;2.13;76.21
71857;BME280;63344;46.980;28.882;2023-02-17T06:57:24;101186.72;;;2.31;74.82
71857;BME280;63344;46.980;28.882;2023-02-17T06:59:52;101175.38;;;2.36;74.34
71857;BME280;63344;46.980;28.882;2023-02-17T07:02:19;101174.53;;;2.44;73.73
71857;BME280;63344;46.980;28.882;2023-02-17T07:04:49;101179.78;;;2.51;73.62
71857;BME280;63344;46.980;28.882;2023-02-17T07:07:18;101161.47;;;2.61;72.97
71857;BME280;63344;46.980;28.882;2023-02-17T07:09:45;101179.84;;;2.73;72.69
71857;BME280;63344;46.980;28.882;2023-02-17T07:12:12;101170.28;;;2.83;71.85
71857;BME280;63344;46.980;28.882;2023-02-17T07:15:09;101174.66;;;2.96;71.32
71857;BME280;63344;46.980;28.882;2023-02-17T07:17:39;101172.03;;;3.05;70.72
71857;BME280;63344;46.980;28.882;2023-02-17T07:20:08;101183.44;;;3.15;70.55
71857;BME280;63344;46.980;28.882;2023-02-17T07:22:37;101181.69;;;3.25;69.75
71857;BME280;63344;46.980;28.882;2023-02-17T07:25:06;101183.44;;;3.27;69.72
71857;BME280;63344;46.980;28.882;2023-02-17T07:27:35;101173.81;;;3.38;69.66
71857;BME280;63344;46.980;28.882;2023-02-17T07:30:03;101175.53;;;3.53;69.22
71857;BME280;63344;46.980;28.882;2023-02-17T07:32:31;101172.91;;;3.63;68.67
71857;BME280;63344;46.980;28.882;2023-02-17T07:34:58;101180.75;;;3.81;68.62
71857;BME280;63344;46.980;28.882;2023-02-17T07:37:26;101180.72;;;3.96;67.92
71857;BME280;63344;46.980;28.882;2023-02-17T07:39:53;101182.44;;;4.13;67.11
71857;BME280;63344;46.980;28.882;2023-02-17T07:42:26;101177.97;;;4.27;67.25
71857;BME280;63344;46.980;28.882;2023-02-17T07:44:53;101180.53;;;4.49;67.45
71857;BME280;63344;46.980;28.882;2023-02-17T07:47:20;101185.69;;;4.70;67.28
71857;BME280;63344;46.980;28.882;2023-02-17T07:49:47;101175.94;;;4.85;66.08
71857;BME280;63344;46.980;28.882;2023-02-17T07:52:16;101181.97;;;5.02;65.84
71857;BME280;63344;46.980;28.882;2023-02-17T07:54:44;101177.47;;;5.18;64.95
71857;BME280;63344;46.980;28.882;2023-02-17T07:57:12;101173.81;;;5.36;64.54
71857;BME280;63344;46.980;28.882;2023-02-17T07:59:39;101186.78;;;5.59;63.62
71857;BME280;63344;46.980;28.882;2023-02-17T08:02:10;101178.75;;;5.73;62.35
71857;BME280;63344;46.980;28.882;2023-02-17T08:04:38;101174.16;;;5.92;62.99
71857;BME280;63344;46.980;28.882;2023-02-17T08:07:08;101179.19;;;6.16;61.93
71857;BME280;63344;46.980;28.882;2023-02-17T08:09:35;101168.38;;;6.38;60.02
71857;BME280;63344;46.980;28.882;2023-02-17T08:12:27;101165.47;;;6.60;59.60
71857;BME280;63344;46.980;28.882;2023-02-17T08:15:12;101164.28;;;6.82;58.46
71857;BME280;63344;46.980;28.882;2023-02-17T08:17:44;101169.34;;;6.96;58.80
71857;BME280;63344;46.980;28.882;2023-02-17T08:20:16;101148.78;;;7.16;57.33
71857;BME280;63344;46.980;28.882;2023-02-17T08:22:44;101166.28;;;7.22;57.05
71857;BME280;63344;46.980;28.882;2023-02-17T08:25:13;101151.16;;;7.32;56.91
71857;BME280;63344;46.980;28.882;2023-02-17T08:27:40;101159.59;;;7.54;56.71
71857;BME280;63344;46.980;28.882;2023-02-17T08:30:08;101148.78;;;7.68;55.74
71857;BME280;63344;46.980;28.882;2023-02-17T08:32:36;101156.47;;;7.80;55.37
71857;BME280;63344;46.980;28.882;2023-02-17T08:35:03;101153.66;;;7.91;55.28
71857;BME280;63344;46.980;28.882;2023-02-17T08:37:51;101152.31;;;8.13;54.70
71857;BME280;63344;46.980;28.882;2023-02-17T08:40:20;101152.09;;;8.24;54.73
71857;BME280;63344;46.980;28.882;2023-02-17T08:42:47;101135.06;;;8.37;54.56
71857;BME280;63344;46.980;28.882;2023-02-17T08:45:15;101171.63;;;8.62;53.40
71857;BME280;63344;46.980;28.882;2023-02-17T08:47:43;101156.41;;;8.70;53.18
71857;BME280;63344;46.980;28.882;2023-02-17T08:50:13;101160.69;;;8.77;53.02
71857;BME280;63344;46.980;28.882;2023-02-17T08:53:05;101164.13;;;8.83;52.29
71857;BME280;63344;46.980;28.882;2023-02-17T08:55:34;101155.25;;;8.84;52.61
71857;BME280;63344;46.980;28.882;2023-02-17T08:58:15;101161.31;;;8.89;52.57
71857;BME280;63344;46.980;28.882;2023-02-17T09:00:43;101155.69;;;9.03;52.38
71857;BME280;63344;46.980;28.882;2023-02-17T09:03:10;101148.22;;;9.18;52.15
71857;BME280;63344;46.980;28.882;2023-02-17T09:05:37;101168.03;;;9.40;51.76
71857;BME280;63344;46.980;28.882;2023-02-17T09:08:08;101148.28;;;9.51;50.99
71857;BME280;63344;46.980;28.882;2023-02-17T09:10:37;101152.16;;;9.72;50.99
71857;BME280;63344;46.980;28.882;2023-02-17T09:13:05;101160.59;;;10.20;49.50
71857;BME280;63344;46.980;28.882;2023-02-17T09:15:34;101137.31;;;10.29;49.04
71857;BME280;63344;46.980;28.882;2023-02-17T09:18:03;101138.91;;;10.36;48.64
71857;BME280;63344;46.980;28.882;2023-02-17T09:20:30;101153.44;;;10.83;48.21
71857;BME280;63344;46.980;28.882;2023-02-17T09:22:57;101156.28;;;11.83;46.39
71857;BME280;63344;46.980;28.882;2023-02-17T09:25:33;101152.22;;;12.92;44.36
71857;BME280;63344;46.980;28.882;2023-02-17T09:28:07;101138.97;;;13.55;41.78
71857;BME280;63344;46.980;28.882;2023-02-17T09:31:16;101158.38;;;13.59;41.23
71857;BME280;63344;46.980;28.882;2023-02-17T09:33:45;101168.75;;;13.87;40.96
71857;BME280;63344;46.980;28.882;2023-02-17T09:36:16;101161.66;;;14.07;40.50
71857;BME280;63344;46.980;28.882;2023-02-17T09:38:45;101150.28;;;14.22;39.53
71857;BME280;63344;46.980;28.882;2023-02-17T09:41:33;101131.91;;;14.73;39.79
71857;BME280;63344;46.980;28.882;2023-02-17T09:44:11;101130.41;;;15.40;38.04
71857;BME280;63344;46.980;28.882;2023-02-17T09:46:46;101144.63;;;15.41;37.34
71857;BME280;63344;46.980;28.882;2023-02-17T09:49:42;101116.34;;;15.00;37.50
71857;BME280;63344;46.980;28.882;2023-02-17T09:57:37;101138.03;;;14.94;36.85
71857;BME280;63344;46.980;28.882;2023-02-17T10:00:08;101110.38;;;14.57;37.70
71857;BME280;63344;46.980;28.882;2023-02-17T10:06:13;101131.03;;;15.80;36.23
71857;BME280;63344;46.980;28.882;2023-02-17T10:09:47;101097.41;;;15.40;36.54
71857;BME280;63344;46.980;28.882;2023-02-17T10:12:34;101125.28;;;14.99;37.41
71857;BME280;63344;46.980;28.882;2023-02-17T10:15:16;101122.84;;;15.66;36.13
71857;BME280;63344;46.980;28.882;2023-02-17T10:18:13;101125.19;;;15.89;35.78
71857;BME280;63344;46.980;28.882;2023-02-17T10:20:54;101119.22;;;16.18;35.40
71857;BME280;63344;46.980;28.882;2023-02-17T10:23:26;101126.81;;;17.06;34.11
71857;BME280;63344;46.980;28.882;2023-02-17T10:29:13;101110.09;;;17.01;33.61
71857;BME280;63344;46.980;28.882;2023-02-17T10:31:47;101081.44;;;17.18;33.56
71857;BME280;63344;46.980;28.882;2023-02-17T10:35:28;101101.03;;;16.88;33.56
71857;BME280;63344;46.980;28.882;2023-02-17T10:37:44;101101.81;;;16.58;33.82
71857;BME280;63344;46.980;28.882;2023-02-17T10:40:20;101098.09;;;15.96;34.50
71857;BME280;63344;46.980;28.882;2023-02-17T10:42:58;101089.25;;;15.93;34.45
71857;BME280;63344;46.980;28.882;2023-02-17T10:45:32;101090.78;;;15.64;34.96
71857;BME280;63344;46.980;28.882;2023-02-17T10:50:34;101070.69;;;15.56;34.89
71857;BME280;63344;46.980;28.882;2023-02-17T10:53:14;101072.34;;;15.23;35.26
71857;BME280;63344;46.980;28.882;2023-02-17T10:56:17;101086.94;;;14.43;36.61
71857;BME280;63344;46.980;28.882;2023-02-17T10:58:54;101087.47;;;14.32;36.55
71857;BME280;63344;46.980;28.882;2023-02-17T11:01:23;101065.94;;;14.35;36.60
71857;BME280;63344;46.980;28.882;2023-02-17T11:04:10;101063.50;;;14.12;36.79
71857;BME280;63344;46.980;28.882;2023-02-17T11:06:42;101079.53;;;13.91;37.50
71857;BME280;63344;46.980;28.882;2023-02-17T11:09:28;101051.97;;;13.91;37.28
71857;BME280;63344;46.980;28.882;2023-02-17T11:12:19;101065.84;;;13.80;37.35
71857;BME280;63344;46.980;28.882;2023-02-17T11:14:49;101074.31;;;13.69;37.16
71857;BME280;63344;46.980;28.882;2023-02-17T11:17:39;101060.78;;;13.33;37.73
71857;BME280;63344;46.980;28.882;2023-02-17T11:22:46;101084.38;;;12.55;39.29
71857;BME280;63344;46.980;28.882;2023-02-17T11:27:57;101080.03;;;12.07;39.76
71857;BME280;63344;46.980;28.882;2023-02-17T11:30:26;101066.09;;;12.01;39.57
71857;BME280;63344;46.980;28.882;2023-02-17T11:32:54;101077.25;;;12.10;39.77
71857;BME280;63344;46.980;28.882;2023-02-17T11:38:14;101075.63;;;12.52;39.04
71857;BME280;63344;46.980;28.882;2023-02-17T11:40:59;101072.00;;;12.99;38.89
71857;BME280;63344;46.980;28.882;2023-02-17T11:43:30;101061.53;;;13.14;38.11
71857;BME280;63344;46.980;28.882;2023-02-17T11:51:52;101074.38;;;12.62;37.96
71857;BME280;63344;46.980;28.882;2023-02-17T11:57:38;101056.19;;;12.04;39.31
71857;BME280;63344;46.980;28.882;2023-02-17T12:00:39;101046.75;;;11.95;39.69
71857;BME280;63344;46.980;28.882;2023-02-17T12:06:04;101044.22;;;11.92;39.72
71857;BME280;63344;46.980;28.882;2023-02-17T12:14:10;101036.63;;;11.80;40.71
71857;BME280;63344;46.980;28.882;2023-02-17T12:19:32;101046.78;;;11.45;41.00
71857;BME280;63344;46.980;28.882;2023-02-17T12:22:19;101038.59;;;11.26;41.83
71857;BME280;63344;46.980;28.882;2023-02-17T12:33:51;101045.44;;;11.59;41.39
71857;BME280;63344;46.980;28.882;2023-02-17T12:36:29;101043.81;;;11.54;41.62
71857;BME280;63344;46.980;28.882;2023-02-17T12:42:17;101045.59;;;11.29;42.10
71857;BME280;63344;46.980;28.882;2023-02-17T12:45:01;101036.22;;;11.19;42.19
71857;BME280;63344;46.980;28.882;2023-02-17T12:47:56;101036.22;;;11.19;42.58
71857;BME280;63344;46.980;28.882;2023-02-17T12:50:49;101030.53;;;11.03;42.27
71857;BME280;63344;46.980;28.882;2023-02-17T12:53:25;101036.41;;;10.86;42.38
71857;BME280;63344;46.980;28.882;2023-02-17T12:55:57;101020.78;;;10.76;42.79
71857;BME280;63344;46.980;28.882;2023-02-17T12:58:28;101021.66;;;10.77;42.71
71857;BME280;63344;46.980;28.882;2023-02-17T13:01:05;101021.09;;;10.67;42.85
71857;BME280;63344;46.980;28.882;2023-02-17T13:03:36;101019.19;;;10.71;43.12
71857;BME280;63344;46.980;28.882;2023-02-17T13:06:36;101016.50;;;10.72;43.49
71857;BME280;63344;46.980;28.882;2023-02-17T13:09:32;101022.22;;;10.87;43.56
71857;BME280;63344;46.980;28.882;2023-02-17T13:12:39;101016.13;;;10.83;43.36
71857;BME280;63344;46.980;28.882;2023-02-17T13:15:45;101015.16;;;10.86;42.97
71857;BME280;63344;46.980;28.882;2023-02-17T13:20:59;101011.19;;;10.72;43.08
71857;BME280;63344;46.980;28.882;2023-02-17T13:24:03;101001.47;;;10.71;43.18
71857;BME280;63344;46.980;28.882;2023-02-17T13:26:36;101013.72;;;10.75;43.38
71857;BME280;63344;46.980;28.882;2023-02-17T13:31:53;101005.72;;;10.77;43.60
71857;BME280;63344;46.980;28.882;2023-02-17T13:34:42;101020.72;;;10.78;43.26
71857;BME280;63344;46.980;28.882;2023-02-17T13:37:15;101020.94;;;10.72;43.60
71857;BME280;63344;46.980;28.882;2023-02-17T13:39:45;101025.47;;;10.68;43.90
71857;BME280;63344;46.980;28.882;2023-02-17T13:42:39;101024.66;;;10.66;43.61
71857;BME280;63344;46.980;28.882;2023-02-17T13:45:13;101029.09;;;10.66;44.08
71857;BME280;63344;46.980;28.882;2023-02-17T13:47:43;101026.41;;;10.67;43.70
71857;BME280;63344;46.980;28.882;2023-02-17T13:50:55;101031.06;;;10.61;43.87
71857;BME280;63344;46.980;28.882;2023-02-17T13:55:56;101032.41;;;10.46;43.85
71857;BME280;63344;46.980;28.882;2023-02-17T13:58:41;101028.13;;;10.40;44.17
71857;BME280;63344;46.980;28.882;2023-02-17T14:01:15;101020.34;;;10.35;43.93
71857;BME280;63344;46.980;28.882;2023-02-17T14:03:52;101021.97;;;10.40;44.23
71857;BME280;63344;46.980;28.882;2023-02-17T14:06:27;101023.91;;;10.34;43.83
71857;BME280;63344;46.980;28.882;2023-02-17T14:08:56;101014.53;;;10.23;44.35
71857;BME280;63344;46.980;28.882;2023-02-17T14:11:25;101015.25;;;10.26;44.39
71857;BME280;63344;46.980;28.882;2023-02-17T14:13:55;101025.69;;;10.34;44.17
71857;BME280;63344;46.980;28.882;2023-02-17T14:16:37;101029.13;;;10.38;44.33
71857;BME280;63344;46.980;28.882;2023-02-17T14:19:14;101018.25;;;10.45;44.26
71857;BME280;63344;46.980;28.882;2023-02-17T14:21:55;101023.41;;;10.50;44.03
71857;BME280;63344;46.980;28.882;2023-02-17T14:24:29;101026.88;;;10.52;43.81
71857;BME280;63344;46.980;28.882;2023-02-17T14:27:16;101013.00;;;10.44;44.19
71857;BME280;63344;46.980;28.882;2023-02-17T14:29:46;101016.56;;;10.43;44.27
71857;BME280;63344;46.980;28.882;2023-02-17T14:32:34;101029.16;;;10.36;44.34
71857;BME280;63344;46.980;28.882;2023-02-17T14:35:22;101022.31;;;10.27;44.40
71857;BME280;63344;46.980;28.882;2023-02-17T14:37:50;101020.88;;;10.17;44.85
71857;BME280;63344;46.980;28.882;2023-02-17T14:40:23;101024.63;;;10.10;44.41
71857;BME280;63344;46.980;28.882;2023-02-17T14:42:50;101030.22;;;10.01;44.53
71857;BME280;63344;46.980;28.882;2023-02-17T14:45:18;101026.97;;;9.91;45.11
71857;BME280;63344;46.980;28.882;2023-02-17T14:47:46;101037.63;;;9.89;45.21
71857;BME280;63344;46.980;28.882;2023-02-17T14:50:13;101043.13;;;9.83;45.55
71857;BME280;63344;46.980;28.882;2023-02-17T14:52:48;101033.50;;;9.79;45.45